createdAt,value
2023-05-04T00:02:03.703Z,1.08
2023-05-04T00:04:35.006Z,2.03
2023-05-04T00:07:06.643Z,1.10
2023-05-04T00:09:38.312Z,1.30
2023-05-04T00:12:09.563Z,1.20
2023-05-04T00:14:41.147Z,1.25
2023-05-04T00:17:12.566Z,1.30
2023-05-04T00:19:45.661Z,1.40
2023-05-04T00:22:17.281Z,1.20
2023-05-04T00:24:48.645Z,1.30
2023-05-04T00:27:19.912Z,1.40
2023-05-04T00:29:51.070Z,1.55
2023-05-04T00:32:23.475Z,2.88
2023-05-04T00:34:54.969Z,2.50
2023-05-04T00:37:26.458Z,1.92
2023-05-04T00:39:57.644Z,1.73
2023-05-04T00:42:29.118Z,1.58
2023-05-04T00:45:00.342Z,1.20
2023-05-04T00:47:35.206Z,1.52
2023-05-04T00:50:07.333Z,1.63
2023-05-04T00:52:39.894Z,1.50
2023-05-04T00:55:12.343Z,1.50
2023-05-04T00:57:44.463Z,1.67
2023-05-04T01:00:16.551Z,1.80
2023-05-04T01:05:18.986Z,1.50
2023-05-04T01:07:56.518Z,1.20
2023-05-04T01:10:53.578Z,2.20
2023-05-04T01:13:25.148Z,1.55
2023-05-04T01:15:57.415Z,1.60
2023-05-04T01:18:28.759Z,1.67
2023-05-04T01:21:00.288Z,1.60
2023-05-04T01:23:32.219Z,1.60
2023-05-04T01:26:32.610Z,1.95
2023-05-04T01:29:26.843Z,1.67
2023-05-04T01:31:58.935Z,1.70
2023-05-04T01:34:30.481Z,2.05
2023-05-04T01:37:02.050Z,1.77
2023-05-04T01:42:06.481Z,1.83
2023-05-04T01:44:38.230Z,1.77
2023-05-04T01:47:09.689Z,1.80
2023-05-04T01:49:41.266Z,2.10
2023-05-04T01:52:13.363Z,1.98
2023-05-04T01:57:15.348Z,1.40
2023-05-04T01:59:46.545Z,1.70
2023-05-04T02:04:50.162Z,1.58
2023-05-04T02:07:21.826Z,1.65
2023-05-04T02:09:53.123Z,2.05
2023-05-04T02:12:25.552Z,1.90
2023-05-04T02:14:56.675Z,2.05
2023-05-04T02:17:28.349Z,1.60
2023-05-04T02:20:00.235Z,1.70
2023-05-04T02:22:33.943Z,1.90
2023-05-04T02:25:05.210Z,1.77
2023-05-04T02:27:36.866Z,1.80
2023-05-04T02:30:08.880Z,2.08
2023-05-04T02:32:40.114Z,1.60
2023-05-04T02:35:11.598Z,1.77
2023-05-04T02:37:42.753Z,1.80
2023-05-04T02:40:14.859Z,1.77
2023-05-04T02:42:46.196Z,1.40
2023-05-04T02:45:17.460Z,1.73
2023-05-04T02:47:48.876Z,2.10
2023-05-04T02:50:20.612Z,1.75
2023-05-04T02:52:51.602Z,1.90
2023-05-04T02:55:22.964Z,2.10
2023-05-04T02:57:54.609Z,1.50
2023-05-04T03:00:26.309Z,1.58
2023-05-04T03:02:58.630Z,1.45
2023-05-04T03:05:30.024Z,1.42
2023-05-04T03:08:01.548Z,1.98
2023-05-04T03:10:33.077Z,1.60
2023-05-04T03:15:38.743Z,1.65
2023-05-04T03:18:10.854Z,2.10
2023-05-04T03:20:42.660Z,1.70
2023-05-04T03:23:19.680Z,1.80
2023-05-04T03:25:51.489Z,1.48
2023-05-04T03:28:23.009Z,1.42
2023-05-04T03:30:54.835Z,1.80
2023-05-04T03:35:59.068Z,1.40
2023-05-04T03:38:30.561Z,1.58
2023-05-04T03:41:01.873Z,1.20
2023-05-04T03:43:33.461Z,1.63
2023-05-04T03:46:05.315Z,1.58
2023-05-04T03:48:36.555Z,1.40
2023-05-04T03:51:09.752Z,1.35
2023-05-04T03:56:14.269Z,1.30
2023-05-04T03:58:45.580Z,1.15
2023-05-04T04:01:18.526Z,1.20
2023-05-04T04:03:50.644Z,1.00
2023-05-04T04:06:43.217Z,1.60
2023-05-04T04:09:17.516Z,1.42
2023-05-04T04:11:49.140Z,0.95
2023-05-04T04:14:20.138Z,1.20
2023-05-04T04:16:51.217Z,0.80
2023-05-04T04:19:25.296Z,1.33
2023-05-04T04:21:56.836Z,1.10
2023-05-04T04:24:27.966Z,1.10
2023-05-04T04:26:59.454Z,1.00
2023-05-04T04:29:30.878Z,1.13
2023-05-04T04:32:02.269Z,1.30
2023-05-04T04:34:33.667Z,1.30
2023-05-04T04:37:05.122Z,1.40
2023-05-04T04:39:39.379Z,1.85
2023-05-04T04:42:10.595Z,1.05
2023-05-04T04:44:42.546Z,1.02
2023-05-04T04:47:14.618Z,1.10
2023-05-04T04:52:19.418Z,1.40
2023-05-04T04:54:50.895Z,1.20
2023-05-04T04:59:55.173Z,1.30
2023-05-04T05:02:26.526Z,1.40
2023-05-04T05:07:29.939Z,1.50
2023-05-04T05:10:01.364Z,1.45
2023-05-04T05:12:34.606Z,1.70
2023-05-04T05:15:06.272Z,1.40
2023-05-04T05:20:13.458Z,1.65
2023-05-04T05:22:45.010Z,1.73
2023-05-04T05:25:16.327Z,1.80
2023-05-04T05:27:47.621Z,1.60
2023-05-04T05:30:18.968Z,1.55
2023-05-04T05:32:50.130Z,1.95
2023-05-04T05:35:21.318Z,2.15
2023-05-04T05:37:53.524Z,2.28
2023-05-04T05:40:25.182Z,1.35
2023-05-04T05:42:56.095Z,1.80
2023-05-04T05:45:27.588Z,1.77
2023-05-04T05:47:59.174Z,1.70
2023-05-04T05:50:30.448Z,1.05
2023-05-04T05:53:01.572Z,1.10
2023-05-04T05:55:33.201Z,1.58
2023-05-04T05:58:23.217Z,1.40
2023-05-04T06:00:54.763Z,1.17
2023-05-04T06:03:26.093Z,1.50
2023-05-04T06:05:58.157Z,1.45
2023-05-04T06:08:29.592Z,2.00
2023-05-04T06:11:01.007Z,4.85
2023-05-04T06:13:32.420Z,1.70
2023-05-04T06:16:03.604Z,1.20
2023-05-04T06:18:34.733Z,1.20
2023-05-04T06:21:06.394Z,1.20
2023-05-04T06:26:09.493Z,1.10
2023-05-04T06:28:41.189Z,1.38
2023-05-04T06:31:12.406Z,1.42
2023-05-04T06:33:44.239Z,1.90
2023-05-04T06:38:46.886Z,1.33
2023-05-04T06:43:49.460Z,1.90
2023-05-04T06:46:21.439Z,1.70
2023-05-04T06:48:52.904Z,1.60
2023-05-04T06:51:24.151Z,1.40
2023-05-04T06:53:56.177Z,1.60
2023-05-04T06:56:31.228Z,1.30
2023-05-04T06:59:02.732Z,1.17
2023-05-04T07:01:39.924Z,1.17
2023-05-04T07:04:11.343Z,1.20
2023-05-04T07:06:43.021Z,1.40
2023-05-04T07:09:14.214Z,1.50
2023-05-04T07:11:45.296Z,1.35
2023-05-04T07:14:17.252Z,1.08
2023-05-04T07:16:48.723Z,1.00
2023-05-04T07:19:20.096Z,1.50
2023-05-04T07:21:51.430Z,1.20
2023-05-04T07:24:22.833Z,1.50
2023-05-04T07:26:54.271Z,1.58
2023-05-04T07:29:25.436Z,1.60
2023-05-04T07:31:57.461Z,1.92
2023-05-04T07:34:41.787Z,1.77
2023-05-04T07:37:13.558Z,1.50
2023-05-04T07:39:44.810Z,1.48
2023-05-04T07:42:16.280Z,1.63
2023-05-04T07:44:47.787Z,1.50
2023-05-04T07:47:19.423Z,1.40
2023-05-04T07:49:50.808Z,1.92
2023-05-04T07:52:22.063Z,1.58
2023-05-04T07:54:56.697Z,1.73
2023-05-04T07:57:28.031Z,2.05
2023-05-04T07:59:59.191Z,1.90
2023-05-04T08:02:30.553Z,1.77
2023-05-04T08:05:02.750Z,2.40
2023-05-04T08:07:34.870Z,1.77
2023-05-04T08:10:07.202Z,1.60
2023-05-04T08:12:38.533Z,2.10
2023-05-04T08:15:10.692Z,4.10
2023-05-04T08:17:42.568Z,9.85
2023-05-04T08:20:14.684Z,1.20
2023-05-04T08:25:16.780Z,1.50
2023-05-04T08:27:48.348Z,1.20
2023-05-04T08:30:19.763Z,1.35
2023-05-04T08:32:56.904Z,1.50
2023-05-04T08:35:29.417Z,2.40
2023-05-04T08:38:00.336Z,1.08
2023-05-04T08:40:31.660Z,1.40
2023-05-04T08:43:03.204Z,13.88
2023-05-04T08:45:34.796Z,2.67
2023-05-04T08:48:10.416Z,8.07
2023-05-04T08:50:41.992Z,7.78
2023-05-04T08:53:17.911Z,4.22
2023-05-04T08:55:52.557Z,1.90
2023-05-04T08:58:24.867Z,1.73
2023-05-04T09:00:56.067Z,2.35
2023-05-04T09:03:28.020Z,2.10
2023-05-04T09:08:30.919Z,1.98
2023-05-04T09:11:02.558Z,5.15
2023-05-04T09:13:34.314Z,3.15
2023-05-04T09:16:05.639Z,2.75
2023-05-04T09:18:45.456Z,14.00
2023-05-04T09:21:16.911Z,14.93
2023-05-04T09:23:55.438Z,10.80
2023-05-04T09:26:34.514Z,11.40
2023-05-04T09:29:15.835Z,11.90
2023-05-04T09:31:52.555Z,8.35
2023-05-04T09:34:24.856Z,4.93
2023-05-04T09:37:06.703Z,3.83
2023-05-04T09:42:20.216Z,2.58
2023-05-04T09:45:02.804Z,2.55
2023-05-04T09:47:41.769Z,2.90
2023-05-04T09:50:21.669Z,2.70
2023-05-04T09:52:53.377Z,2.47
2023-05-04T09:55:24.711Z,1.73
2023-05-04T09:57:55.897Z,1.95
2023-05-04T10:00:27.173Z,2.45
2023-05-04T10:02:58.535Z,2.08
2023-05-04T10:05:30.144Z,2.20
2023-05-04T10:10:35.349Z,2.30
2023-05-04T10:13:06.603Z,2.92
2023-05-04T10:15:39.275Z,2.10
2023-05-04T10:18:28.772Z,2.05
2023-05-04T10:21:17.684Z,2.28
2023-05-04T10:23:57.737Z,2.92
2023-05-04T10:26:38.545Z,2.60
2023-05-04T10:29:27.367Z,2.00
2023-05-04T10:31:59.179Z,2.97
2023-05-04T10:34:33.036Z,1.83
2023-05-04T10:37:05.633Z,2.50
2023-05-04T10:39:37.999Z,2.30
2023-05-04T10:42:10.532Z,1.70
2023-05-04T10:44:59.806Z,2.35
2023-05-04T10:47:38.499Z,2.97
2023-05-04T10:50:12.751Z,1.90
2023-05-04T10:52:58.348Z,1.85
2023-05-04T10:55:43.807Z,2.72
2023-05-04T10:58:18.156Z,2.15
2023-05-04T11:00:53.112Z,2.35
2023-05-04T11:03:26.203Z,2.00
2023-05-04T11:05:57.540Z,1.95
2023-05-04T11:08:29.144Z,2.88
2023-05-04T11:11:08.568Z,2.58
2023-05-04T11:13:48.848Z,3.42
2023-05-04T11:16:27.477Z,4.35
2023-05-04T11:19:11.131Z,3.45
2023-05-04T11:21:43.121Z,3.30
2023-05-04T11:24:14.577Z,3.35
2023-05-04T11:26:50.590Z,2.75
2023-05-04T11:29:21.864Z,2.55
2023-05-04T11:31:59.189Z,2.10
2023-05-04T11:34:30.494Z,2.33
2023-05-04T11:37:01.920Z,2.00
2023-05-04T11:39:35.164Z,2.22
2023-05-04T11:42:11.216Z,2.42
2023-05-04T11:44:43.158Z,2.55
2023-05-04T11:47:15.265Z,2.25
2023-05-04T11:49:48.937Z,2.17
2023-05-04T11:52:28.893Z,2.00
2023-05-04T11:55:00.218Z,1.77
2023-05-04T11:57:34.033Z,2.50
2023-05-04T12:00:07.713Z,2.42
2023-05-04T12:02:39.425Z,2.03
2023-05-04T12:05:15.603Z,2.28
2023-05-04T12:07:47.082Z,1.85
2023-05-04T12:10:28.816Z,2.33
2023-05-04T12:13:00.549Z,2.00
2023-05-04T12:15:38.841Z,2.17
2023-05-04T12:18:10.207Z,1.85
2023-05-04T12:20:41.634Z,2.10
2023-05-04T12:23:13.249Z,2.20
2023-05-04T12:25:57.339Z,2.13
2023-05-04T12:28:31.041Z,1.98
2023-05-04T12:31:02.516Z,1.92
2023-05-04T12:33:34.702Z,1.90
2023-05-04T12:36:07.350Z,2.08
2023-05-04T12:38:41.777Z,2.10
2023-05-04T12:41:13.374Z,1.77
2023-05-04T12:43:45.078Z,2.20
2023-05-04T12:48:47.414Z,1.98
2023-05-04T12:51:18.730Z,2.25
2023-05-04T12:53:50.060Z,2.08
2023-05-04T12:56:21.424Z,2.13
2023-05-04T12:58:52.784Z,2.00
2023-05-04T13:03:55.239Z,2.25
2023-05-04T13:06:26.496Z,2.03
2023-05-04T13:08:57.636Z,2.17
2023-05-04T13:11:29.115Z,1.67
2023-05-04T13:14:01.320Z,1.83
2023-05-04T13:16:32.915Z,1.90
2023-05-04T13:19:04.975Z,2.38
2023-05-04T13:21:36.382Z,2.17
2023-05-04T13:24:08.023Z,1.70
2023-05-04T13:29:10.086Z,1.73
2023-05-04T13:31:44.823Z,2.45
2023-05-04T13:34:16.270Z,2.30
2023-05-04T13:36:48.563Z,1.63
2023-05-04T13:39:24.805Z,2.00
2023-05-04T13:41:56.292Z,2.10
2023-05-04T13:44:27.529Z,2.10
2023-05-04T13:46:58.970Z,1.70
2023-05-04T13:49:30.288Z,1.75
2023-05-04T13:52:02.243Z,1.63
2023-05-04T13:54:33.784Z,1.70
2023-05-04T13:57:05.307Z,1.45
2023-05-04T13:59:36.516Z,1.80
2023-05-04T14:02:07.907Z,1.77
2023-05-04T14:04:39.972Z,2.15
2023-05-04T14:07:12.146Z,1.90
2023-05-04T14:09:43.355Z,1.73
2023-05-04T14:12:17.032Z,1.70
2023-05-04T14:14:48.781Z,1.80
2023-05-04T14:17:20.262Z,2.00
2023-05-04T14:19:51.636Z,1.60
2023-05-04T14:22:22.794Z,1.52
2023-05-04T14:24:54.405Z,1.85
2023-05-04T14:27:25.720Z,1.67
2023-05-04T14:29:57.044Z,1.40
2023-05-04T14:32:28.406Z,1.67
2023-05-04T14:35:10.046Z,1.60
2023-05-04T14:40:13.131Z,1.55
2023-05-04T14:42:44.550Z,1.38
2023-05-04T14:45:16.810Z,1.98
2023-05-04T14:47:48.829Z,2.00
2023-05-04T14:50:20.721Z,1.67
2023-05-04T14:55:23.042Z,1.80
2023-05-04T14:57:54.770Z,2.28
2023-05-04T15:00:26.157Z,1.80
2023-05-04T15:02:58.707Z,1.83
2023-05-04T15:05:29.977Z,2.10
2023-05-04T15:08:01.903Z,1.40
2023-05-04T15:10:33.335Z,1.50
2023-05-04T15:13:05.159Z,1.60
2023-05-04T15:15:42.201Z,1.60
2023-05-04T15:18:14.068Z,1.60
2023-05-04T15:20:45.579Z,1.60
2023-05-04T15:23:17.140Z,1.75
2023-05-04T15:25:48.974Z,1.88
2023-05-04T15:30:51.146Z,1.70
2023-05-04T15:33:23.258Z,1.42
2023-05-04T15:35:54.554Z,1.35
2023-05-04T15:38:26.047Z,1.40
2023-05-04T15:40:57.351Z,1.40
2023-05-04T15:43:28.968Z,1.38
2023-05-04T15:46:00.594Z,1.30
2023-05-04T15:51:02.902Z,1.27
2023-05-04T15:53:34.563Z,1.25
2023-05-04T15:56:06.322Z,1.45
2023-05-04T16:01:11.407Z,1.30
2023-05-04T16:03:43.469Z,1.65
2023-05-04T16:06:14.755Z,1.98
2023-05-04T16:08:45.983Z,1.80
2023-05-04T16:11:17.247Z,1.48
2023-05-04T16:13:49.714Z,1.52
2023-05-04T16:16:21.894Z,1.60
2023-05-04T16:18:53.325Z,1.20
2023-05-04T16:21:25.714Z,1.63
2023-05-04T16:23:57.661Z,1.50
2023-05-04T16:28:59.746Z,1.53
2023-05-04T16:31:30.887Z,1.40
2023-05-04T16:34:02.256Z,1.50
2023-05-04T16:36:33.437Z,1.30
2023-05-04T16:39:04.809Z,1.50
2023-05-04T16:41:36.487Z,1.55
2023-05-04T16:44:07.679Z,1.63
2023-05-04T16:46:39.099Z,1.33
2023-05-04T16:49:11.869Z,1.48
2023-05-04T16:51:44.867Z,1.50
2023-05-04T16:54:16.732Z,1.60
2023-05-04T16:56:47.947Z,1.45
2023-05-04T16:59:19.349Z,1.58
2023-05-04T17:01:51.202Z,1.73
2023-05-04T17:06:53.593Z,1.58
2023-05-04T17:11:55.933Z,1.40
2023-05-04T17:16:58.900Z,1.40
2023-05-04T17:19:30.335Z,1.67
2023-05-04T17:22:01.569Z,1.67
2023-05-04T17:24:33.116Z,1.70
2023-05-04T17:27:05.299Z,1.60
2023-05-04T17:29:36.292Z,1.80
2023-05-04T17:32:07.927Z,1.58
2023-05-04T17:34:39.665Z,1.67
2023-05-04T17:37:11.116Z,1.73
2023-05-04T17:42:13.856Z,1.50
2023-05-04T17:44:45.246Z,1.80
2023-05-04T17:47:16.584Z,1.52
2023-05-04T17:49:49.016Z,1.80
2023-05-04T17:52:20.264Z,1.60
2023-05-04T17:54:51.421Z,2.00
2023-05-04T17:57:22.758Z,2.17
2023-05-04T17:59:54.002Z,1.50
2023-05-04T18:02:25.375Z,1.98
2023-05-04T18:04:58.196Z,1.70
2023-05-04T18:07:29.894Z,1.58
2023-05-04T18:10:02.418Z,1.75
2023-05-04T18:12:35.659Z,1.60
2023-05-04T18:15:10.617Z,2.03
2023-05-04T18:17:42.599Z,1.48
2023-05-04T18:20:14.708Z,1.80
2023-05-04T18:22:46.270Z,1.50
2023-05-04T18:25:17.900Z,1.73
2023-05-04T18:27:50.590Z,1.55
2023-05-04T18:30:21.645Z,1.60
2023-05-04T18:32:52.831Z,1.80
2023-05-04T18:35:24.522Z,1.65
2023-05-04T18:37:55.766Z,1.77
2023-05-04T18:40:27.102Z,2.25
2023-05-04T18:42:58.579Z,2.10
2023-05-04T18:45:30.164Z,1.60
2023-05-04T18:48:01.310Z,1.55
2023-05-04T18:50:32.946Z,1.73
2023-05-04T18:55:34.817Z,1.95
2023-05-04T18:58:06.125Z,1.63
2023-05-04T19:00:37.715Z,1.90
2023-05-04T19:03:09.006Z,1.45
2023-05-04T19:05:40.737Z,1.70
2023-05-04T19:08:12.260Z,1.58
2023-05-04T19:10:43.965Z,1.70
2023-05-04T19:13:15.209Z,1.58
2023-05-04T19:15:46.526Z,1.50
2023-05-04T19:18:19.051Z,1.80
2023-05-04T19:20:51.018Z,1.80
2023-05-04T19:25:53.303Z,1.90
2023-05-04T19:28:24.802Z,1.90
2023-05-04T19:30:55.985Z,2.67
2023-05-04T19:33:40.500Z,2.03
2023-05-04T19:36:19.486Z,1.80
2023-05-04T19:38:50.795Z,2.25
2023-05-04T19:41:21.902Z,1.77
2023-05-04T19:43:53.465Z,2.58
2023-05-04T19:46:24.767Z,1.88
2023-05-04T19:48:56.094Z,2.03
2023-05-04T19:51:28.145Z,2.00
2023-05-04T19:53:59.476Z,2.28
2023-05-04T19:56:31.312Z,1.90
2023-05-04T19:59:02.995Z,1.50
2023-05-04T20:01:34.395Z,1.90
2023-05-04T20:04:07.408Z,1.70
2023-05-04T20:06:39.077Z,2.40
2023-05-04T20:09:10.408Z,2.58
2023-05-04T20:11:42.037Z,2.20
2023-05-04T20:14:13.613Z,2.33
2023-05-04T20:16:45.181Z,2.08
2023-05-04T20:19:16.876Z,2.22
2023-05-04T20:21:48.326Z,2.90
2023-05-04T20:24:20.404Z,1.95
2023-05-04T20:26:51.793Z,1.88
2023-05-04T20:31:54.331Z,1.90
2023-05-04T20:34:25.857Z,1.88
2023-05-04T20:36:57.161Z,2.40
2023-05-04T20:39:28.499Z,2.42
2023-05-04T20:42:00.374Z,1.83
2023-05-04T20:44:31.789Z,1.95
2023-05-04T20:47:03.098Z,1.98
2023-05-04T20:49:34.472Z,1.90
2023-05-04T20:54:37.028Z,1.88
2023-05-04T20:57:08.403Z,1.80
2023-05-04T20:59:39.853Z,2.13
2023-05-04T21:04:43.331Z,1.42
2023-05-04T21:07:14.428Z,1.95
2023-05-04T21:09:45.522Z,2.05
2023-05-04T21:12:17.776Z,1.90
2023-05-04T21:14:48.981Z,2.13
2023-05-04T21:17:20.350Z,1.75
2023-05-04T21:19:52.199Z,1.90
2023-05-04T21:22:23.306Z,1.95
2023-05-04T21:24:54.430Z,1.98
2023-05-04T21:27:25.704Z,1.80
2023-05-04T21:29:57.087Z,1.92
2023-05-04T21:32:28.894Z,2.00
2023-05-04T21:35:00.418Z,2.08
2023-05-04T21:37:33.468Z,1.80
2023-05-04T21:40:05.850Z,1.60
2023-05-04T21:42:37.733Z,1.52
2023-05-04T21:45:09.430Z,2.42
2023-05-04T21:47:40.745Z,2.45
2023-05-04T21:50:12.452Z,1.73
2023-05-04T21:52:43.968Z,2.00
2023-05-04T21:55:16.703Z,2.40
2023-05-04T21:57:48.353Z,2.00
2023-05-04T22:00:20.382Z,1.75
2023-05-04T22:02:52.148Z,1.85
2023-05-04T22:05:24.054Z,1.95
2023-05-04T22:07:56.623Z,1.90
2023-05-04T22:10:28.237Z,2.28
2023-05-04T22:12:59.772Z,2.10
2023-05-04T22:15:42.029Z,2.47
2023-05-04T22:18:19.017Z,2.03
2023-05-04T22:20:51.159Z,2.10
2023-05-04T22:23:22.506Z,2.00
2023-05-04T22:25:53.661Z,1.83
2023-05-04T22:28:25.240Z,2.00
2023-05-04T22:33:27.938Z,1.85
2023-05-04T22:38:30.012Z,1.73
2023-05-04T22:41:01.393Z,1.77
2023-05-04T22:43:32.841Z,1.60
2023-05-04T22:46:04.194Z,2.13
2023-05-04T22:48:35.924Z,2.55
2023-05-04T22:53:37.748Z,2.28
2023-05-04T22:56:09.422Z,2.08
2023-05-04T23:01:14.925Z,1.85
2023-05-04T23:03:46.980Z,2.03
2023-05-04T23:06:18.324Z,1.90
2023-05-04T23:08:49.832Z,1.80
2023-05-04T23:11:25.548Z,1.88
2023-05-04T23:13:57.133Z,1.98
2023-05-04T23:16:29.290Z,1.70
2023-05-04T23:19:02.279Z,2.28
2023-05-04T23:21:34.325Z,1.70
2023-05-04T23:24:06.217Z,1.63
2023-05-04T23:26:37.271Z,1.55
2023-05-04T23:29:08.545Z,1.45
2023-05-04T23:31:39.773Z,1.95
2023-05-04T23:34:10.978Z,1.27
2023-05-04T23:36:42.253Z,1.52
2023-05-04T23:39:13.795Z,1.42
2023-05-04T23:41:44.956Z,1.08
2023-05-04T23:44:16.276Z,1.27
2023-05-04T23:46:47.498Z,1.10
2023-05-04T23:49:18.523Z,1.23
2023-05-04T23:51:49.554Z,1.13
2023-05-04T23:54:20.782Z,1.20
2023-05-04T23:59:22.909Z,0.90
